sensor_id;sensor_type;location;lat;lon;timestamp;pressure;altitude;pressure_sealevel;temperature;humidity
31403;BME280;18039;52.188;21.024;2023-02-17T00:01:27;77610.66;;;-141.45;92.87
31403;BME280;18039;52.188;21.024;2023-02-17T00:03:55;77604.56;;;-141.45;93.21
31403;BME280;18039;52.188;21.024;2023-02-17T00:06:25;77598.47;;;-141.45;92.47
31403;BME280;18039;52.188;21.024;2023-02-17T00:08:53;77594.44;;;-141.45;92.02
31403;BME280;18039;52.188;21.024;2023-02-17T00:11:20;77590.38;;;-141.45;92.10
31403;BME280;18039;52.188;21.024;2023-02-17T00:13:48;77594.44;;;-141.45;92.03
31403;BME280;18039;52.188;21.024;2023-02-17T00:16:20;77602.53;;;-141.45;92.33
31403;BME280;18039;52.188;21.024;2023-02-17T00:18:52;77586.31;;;-141.45;92.40
31403;BME280;18039;52.188;21.024;2023-02-17T00:21:21;77590.38;;;-141.45;92.14
31403;BME280;18039;52.188;21.024;2023-02-17T00:23:51;77586.31;;;-141.45;92.02
31403;BME280;18039;52.188;21.024;2023-02-17T00:26:18;77582.25;;;-141.45;92.22
31403;BME280;18039;52.188;21.024;2023-02-17T00:28:47;77590.38;;;-141.45;91.98
31403;BME280;18039;52.188;21.024;2023-02-17T00:31:17;77586.31;;;-141.45;91.92
31403;BME280;18039;52.188;21.024;2023-02-17T00:33:45;77590.38;;;-141.45;92.39
31403;BME280;18039;52.188;21.024;2023-02-17T00:36:15;77584.28;;;-141.45;92.31
31403;BME280;18039;52.188;21.024;2023-02-17T00:38:46;77590.38;;;-141.45;92.25
31403;BME280;18039;52.188;21.024;2023-02-17T00:41:15;77586.31;;;-141.45;92.67
31403;BME280;18039;52.188;21.024;2023-02-17T00:43:42;77586.31;;;-141.45;92.30
31403;BME280;18039;52.188;21.024;2023-02-17T00:46:09;77570.09;;;-141.45;92.04
31403;BME280;18039;52.188;21.024;2023-02-17T00:48:37;77561.97;;;-141.45;91.61
31403;BME280;18039;52.188;21.024;2023-02-17T00:51:04;77547.78;;;-141.45;90.92
31403;BME280;18039;52.188;21.024;2023-02-17T00:53:33;77561.97;;;-141.45;91.66
31403;BME280;18039;52.188;21.024;2023-02-17T00:56:01;77564.00;;;-141.45;91.60
31403;BME280;18039;52.188;21.024;2023-02-17T00:58:30;77561.97;;;-141.45;91.98
31403;BME280;18039;52.188;21.024;2023-02-17T01:00:57;77557.94;;;-141.45;91.69
31403;BME280;18039;52.188;21.024;2023-02-17T01:03:25;77549.81;;;-141.45;91.65
31403;BME280;18039;52.188;21.024;2023-02-17T01:05:54;77549.81;;;-141.45;91.57
31403;BME280;18039;52.188;21.024;2023-02-17T01:08:23;77545.75;;;-141.45;91.82
31403;BME280;18039;52.188;21.024;2023-02-17T01:10:51;77545.75;;;-141.45;91.70
31403;BME280;18039;52.188;21.024;2023-02-17T01:13:19;77541.72;;;-141.45;91.73
31403;BME280;18039;52.188;21.024;2023-02-17T01:15:49;77543.72;;;-141.45;91.71
31403;BME280;18039;52.188;21.024;2023-02-17T01:18:18;77549.81;;;-141.45;91.75
31403;BME280;18039;52.188;21.024;2023-02-17T01:20:46;77541.72;;;-141.45;92.03
31403;BME280;18039;52.188;21.024;2023-02-17T01:23:13;77537.66;;;-141.45;91.95
31403;BME280;18039;52.188;21.024;2023-02-17T01:29:43;77525.47;;;-141.45;91.65
31403;BME280;18039;52.188;21.024;2023-02-17T01:32:11;77517.38;;;-141.45;91.10
31403;BME280;18039;52.188;21.024;2023-02-17T01:34:38;77505.22;;;-141.45;90.86
31403;BME280;18039;52.188;21.024;2023-02-17T01:37:05;77505.22;;;-141.45;90.88
31403;BME280;18039;52.188;21.024;2023-02-17T01:39:35;77509.25;;;-141.45;91.59
31403;BME280;18039;52.188;21.024;2023-02-17T01:42:02;77509.25;;;-141.45;91.65
31403;BME280;18039;52.188;21.024;2023-02-17T01:44:31;77501.16;;;-141.45;91.56
31403;BME280;18039;52.188;21.024;2023-02-17T01:46:58;77509.25;;;-141.45;91.56
31403;BME280;18039;52.188;21.024;2023-02-17T01:49:28;77501.16;;;-141.45;91.64
31403;BME280;18039;52.188;21.024;2023-02-17T01:52:11;77501.16;;;-141.45;91.89
31403;BME280;18039;52.188;21.024;2023-02-17T01:54:56;77505.22;;;-141.45;91.65
31403;BME280;18039;52.188;21.024;2023-02-17T01:57:29;77509.25;;;-141.45;91.90
31403;BME280;18039;52.188;21.024;2023-02-17T01:59:58;77505.22;;;-141.45;91.49
31403;BME280;18039;52.188;21.024;2023-02-17T02:02:26;77509.25;;;-141.45;91.81
31403;BME280;18039;52.188;21.024;2023-02-17T02:04:56;77501.16;;;-141.45;91.46
31403;BME280;18039;52.188;21.024;2023-02-17T02:07:34;77505.22;;;-141.45;91.75
31403;BME280;18039;52.188;21.024;2023-02-17T02:10:03;77491.03;;;-141.45;91.86
31403;BME280;18039;52.188;21.024;2023-02-17T02:12:33;77493.03;;;-141.45;91.71
31403;BME280;18039;52.188;21.024;2023-02-17T02:15:05;77480.88;;;-141.45;91.58
31403;BME280;18039;52.188;21.024;2023-02-17T02:23:44;77480.88;;;-141.45;91.18
31403;BME280;18039;52.188;21.024;2023-02-17T02:34:55;77472.78;;;-141.45;90.83
31403;BME280;18039;52.188;21.024;2023-02-17T02:37:32;77472.78;;;-141.45;90.99
31403;BME280;18039;52.188;21.024;2023-02-17T02:40:04;77466.69;;;-141.45;91.21
31403;BME280;18039;52.188;21.024;2023-02-17T02:42:34;77464.66;;;-141.45;91.52
31403;BME280;18039;52.188;21.024;2023-02-17T02:45:05;77464.66;;;-141.45;91.70
31403;BME280;18039;52.188;21.024;2023-02-17T02:50:00;77454.53;;;-141.45;91.52
31403;BME280;18039;52.188;21.024;2023-02-17T02:52:38;77442.34;;;-141.45;91.05
31403;BME280;18039;52.188;21.024;2023-02-17T02:55:32;77446.41;;;-141.45;91.53
31403;BME280;18039;52.188;21.024;2023-02-17T03:01:15;77438.31;;;-141.45;91.60
31403;BME280;18039;52.188;21.024;2023-02-17T03:03:54;77432.22;;;-141.45;91.79
31403;BME280;18039;52.188;21.024;2023-02-17T03:09:10;77428.16;;;-141.45;91.64
31403;BME280;18039;52.188;21.024;2023-02-17T03:11:40;77430.19;;;-141.45;91.54
31403;BME280;18039;52.188;21.024;2023-02-17T03:14:11;77432.22;;;-141.45;91.80
31403;BME280;18039;52.188;21.024;2023-02-17T03:16:40;77428.16;;;-141.45;91.59
31403;BME280;18039;52.188;21.024;2023-02-17T03:19:08;77411.94;;;-141.45;91.45
31403;BME280;18039;52.188;21.024;2023-02-17T03:21:39;77422.06;;;-141.45;91.65
31403;BME280;18039;52.188;21.024;2023-02-17T03:24:09;77424.09;;;-141.45;92.36
31403;BME280;18039;52.188;21.024;2023-02-17T03:26:36;77416.00;;;-141.45;92.42
31403;BME280;18039;52.188;21.024;2023-02-17T03:29:03;77436.28;;;-141.45;93.42
31403;BME280;18039;52.188;21.024;2023-02-17T03:31:31;77440.31;;;-141.45;93.65
31403;BME280;18039;52.188;21.024;2023-02-17T03:33:58;77432.22;;;-141.45;93.37
31403;BME280;18039;52.188;21.024;2023-02-17T03:36:26;77436.28;;;-141.45;93.73
31403;BME280;18039;52.188;21.024;2023-02-17T03:38:53;77444.38;;;-141.45;93.81
31403;BME280;18039;52.188;21.024;2023-02-17T03:41:20;77440.31;;;-141.45;94.22
31403;BME280;18039;52.188;21.024;2023-02-17T03:43:48;77436.28;;;-141.45;94.01
31403;BME280;18039;52.188;21.024;2023-02-17T03:46:16;77430.19;;;-141.45;93.88
31403;BME280;18039;52.188;21.024;2023-02-17T03:48:43;77432.22;;;-141.45;93.92
31403;BME280;18039;52.188;21.024;2023-02-17T03:53:38;77428.16;;;-141.45;94.45
31403;BME280;18039;52.188;21.024;2023-02-17T03:56:06;77440.31;;;-141.45;94.55
31403;BME280;18039;52.188;21.024;2023-02-17T03:58:33;77422.06;;;-141.45;93.83
31403;BME280;18039;52.188;21.024;2023-02-17T04:01:00;77420.06;;;-141.45;94.24
31403;BME280;18039;52.188;21.024;2023-02-17T04:03:28;77422.06;;;-141.45;95.01
31403;BME280;18039;52.188;21.024;2023-02-17T04:05:55;77420.06;;;-141.45;96.13
31403;BME280;18039;52.188;21.024;2023-02-17T04:08:22;77416.00;;;-141.45;97.11
31403;BME280;18039;52.188;21.024;2023-02-17T04:10:54;77424.09;;;-141.45;98.20
31403;BME280;18039;52.188;21.024;2023-02-17T04:13:22;77432.22;;;-141.45;98.87
31403;BME280;18039;52.188;21.024;2023-02-17T04:15:50;77432.22;;;-141.45;99.58
31403;BME280;18039;52.188;21.024;2023-02-17T04:18:18;77440.31;;;-141.45;100.00
31403;BME280;18039;52.188;21.024;2023-02-17T04:20:48;77440.31;;;-141.45;100.00
31403;BME280;18039;52.188;21.024;2023-02-17T04:23:16;77440.31;;;-141.45;100.00
31403;BME280;18039;52.188;21.024;2023-02-17T04:25:44;77444.38;;;-141.45;100.00
31403;BME280;18039;52.188;21.024;2023-02-17T04:28:12;77442.34;;;-141.45;100.00
31403;BME280;18039;52.188;21.024;2023-02-17T04:30:45;77440.31;;;-141.45;100.00
31403;BME280;18039;52.188;21.024;2023-02-17T04:33:13;77436.28;;;-141.45;100.00
31403;BME280;18039;52.188;21.024;2023-02-17T04:35:40;77444.38;;;-141.45;100.00
31403;BME280;18039;52.188;21.024;2023-02-17T04:38:08;77448.44;;;-141.45;100.00
31403;BME280;18039;52.188;21.024;2023-02-17T04:40:37;77452.50;;;-141.45;100.00
31403;BME280;18039;52.188;21.024;2023-02-17T04:43:04;77442.34;;;-141.45;100.00
31403;BME280;18039;52.188;21.024;2023-02-17T04:45:33;77432.22;;;-141.45;100.00
31403;BME280;18039;52.188;21.024;2023-02-17T04:48:00;77432.22;;;-141.45;100.00
31403;BME280;18039;52.188;21.024;2023-02-17T04:50:27;77424.09;;;-141.45;100.00
31403;BME280;18039;52.188;21.024;2023-02-17T04:52:55;77403.84;;;-141.45;100.00
31403;BME280;18039;52.188;21.024;2023-02-17T04:55:22;77407.88;;;-141.45;100.00
31403;BME280;18039;52.188;21.024;2023-02-17T04:57:49;77411.94;;;-141.45;100.00
31403;BME280;18039;52.188;21.024;2023-02-17T05:00:16;77424.09;;;-141.45;100.00
31403;BME280;18039;52.188;21.024;2023-02-17T05:02:43;77422.06;;;-141.45;100.00
31403;BME280;18039;52.188;21.024;2023-02-17T05:05:10;77428.16;;;-141.45;100.00
31403;BME280;18039;52.188;21.024;2023-02-17T05:07:42;77424.09;;;-141.45;100.00
31403;BME280;18039;52.188;21.024;2023-02-17T05:10:08;77416.00;;;-141.45;100.00
31403;BME280;18039;52.188;21.024;2023-02-17T05:12:36;77397.75;;;-141.45;100.00
31403;BME280;18039;52.188;21.024;2023-02-17T05:15:03;77407.88;;;-141.45;100.00
31403;BME280;18039;52.188;21.024;2023-02-17T05:17:31;77416.00;;;-141.45;100.00
31403;BME280;18039;52.188;21.024;2023-02-17T05:19:59;77399.78;;;-141.45;100.00
31403;BME280;18039;52.188;21.024;2023-02-17T05:22:26;77407.88;;;-141.45;100.00
31403;BME280;18039;52.188;21.024;2023-02-17T05:24:53;77399.78;;;-141.45;100.00
31403;BME280;18039;52.188;21.024;2023-02-17T05:27:21;77399.78;;;-141.45;100.00
31403;BME280;18039;52.188;21.024;2023-02-17T05:29:48;77399.78;;;-141.45;100.00
31403;BME280;18039;52.188;21.024;2023-02-17T05:32:16;77395.72;;;-141.45;100.00
31403;BME280;18039;52.188;21.024;2023-02-17T05:34:43;77399.78;;;-141.45;100.00
31403;BME280;18039;52.188;21.024;2023-02-17T05:37:10;77391.66;;;-141.45;100.00
31403;BME280;18039;52.188;21.024;2023-02-17T05:39:37;77391.66;;;-141.45;100.00
31403;BME280;18039;52.188;21.024;2023-02-17T05:42:05;77393.69;;;-141.45;100.00
31403;BME280;18039;52.188;21.024;2023-02-17T05:44:32;77387.59;;;-141.45;100.00
31403;BME280;18039;52.188;21.024;2023-02-17T05:46:59;77387.59;;;-141.45;100.00
31403;BME280;18039;52.188;21.024;2023-02-17T05:49:27;77383.56;;;-141.45;100.00
31403;BME280;18039;52.188;21.024;2023-02-17T05:51:54;77375.44;;;-141.45;100.00
31403;BME280;18039;52.188;21.024;2023-02-17T05:54:21;77375.44;;;-141.45;100.00
31403;BME280;18039;52.188;21.024;2023-02-17T05:56:48;77375.44;;;-141.45;100.00
31403;BME280;18039;52.188;21.024;2023-02-17T05:59:15;77375.44;;;-141.45;100.00
31403;BME280;18039;52.188;21.024;2023-02-17T06:01:43;77379.50;;;-141.45;100.00
31403;BME280;18039;52.188;21.024;2023-02-17T06:04:09;77379.50;;;-141.45;100.00
31403;BME280;18039;52.188;21.024;2023-02-17T06:06:37;77381.53;;;-141.45;100.00
31403;BME280;18039;52.188;21.024;2023-02-17T06:09:04;77383.56;;;-141.45;100.00
31403;BME280;18039;52.188;21.024;2023-02-17T06:11:31;77379.50;;;-141.45;100.00
31403;BME280;18039;52.188;21.024;2023-02-17T06:13:59;77379.50;;;-141.45;100.00
31403;BME280;18039;52.188;21.024;2023-02-17T06:16:26;77377.47;;;-141.45;100.00
31403;BME280;18039;52.188;21.024;2023-02-17T06:18:53;77383.56;;;-141.45;100.00
31403;BME280;18039;52.188;21.024;2023-02-17T06:21:21;77383.56;;;-141.45;100.00
31403;BME280;18039;52.188;21.024;2023-02-17T06:23:48;77379.50;;;-141.45;100.00
31403;BME280;18039;52.188;21.024;2023-02-17T06:26:15;77383.56;;;-141.45;100.00
31403;BME280;18039;52.188;21.024;2023-02-17T06:28:44;77379.50;;;-141.45;100.00
31403;BME280;18039;52.188;21.024;2023-02-17T06:31:11;77387.59;;;-141.45;100.00
31403;BME280;18039;52.188;21.024;2023-02-17T06:33:40;77387.59;;;-141.45;100.00
31403;BME280;18039;52.188;21.024;2023-02-17T06:36:07;77389.63;;;-141.45;100.00
31403;BME280;18039;52.188;21.024;2023-02-17T06:38:34;77387.59;;;-141.45;100.00
31403;BME280;18039;52.188;21.024;2023-02-17T06:41:01;77379.50;;;-141.45;100.00
31403;BME280;18039;52.188;21.024;2023-02-17T06:43:28;77375.44;;;-141.45;100.00
31403;BME280;18039;52.188;21.024;2023-02-17T06:45:56;77369.38;;;-141.45;100.00
31403;BME280;18039;52.188;21.024;2023-02-17T06:48:23;77375.44;;;-141.45;100.00
31403;BME280;18039;52.188;21.024;2023-02-17T06:50:51;77381.53;;;-141.45;100.00
31403;BME280;18039;52.188;21.024;2023-02-17T06:53:17;77369.38;;;-141.45;100.00
31403;BME280;18039;52.188;21.024;2023-02-17T06:55:45;77367.34;;;-141.45;100.00
31403;BME280;18039;52.188;21.024;2023-02-17T06:58:12;77355.16;;;-141.45;100.00
31403;BME280;18039;52.188;21.024;2023-02-17T07:00:39;77355.16;;;-141.45;100.00
31403;BME280;18039;52.188;21.024;2023-02-17T07:03:06;77347.06;;;-141.45;100.00
31403;BME280;18039;52.188;21.024;2023-02-17T07:05:35;77343.00;;;-141.45;100.00
31403;BME280;18039;52.188;21.024;2023-02-17T07:08:03;77347.06;;;-141.45;100.00
31403;BME280;18039;52.188;21.024;2023-02-17T07:10:31;77338.94;;;-141.45;100.00
31403;BME280;18039;52.188;21.024;2023-02-17T07:12:58;77345.03;;;-141.45;100.00
31403;BME280;18039;52.188;21.024;2023-02-17T07:15:25;77274.06;;;-141.45;100.00
31403;BME280;18039;52.188;21.024;2023-02-17T07:17:52;77213.25;;;-141.45;100.00
31403;BME280;18039;52.188;21.024;2023-02-17T07:20:20;77188.91;;;-141.45;100.00
31403;BME280;18039;52.188;21.024;2023-02-17T07:22:47;77178.78;;;-141.45;100.00
31403;BME280;18039;52.188;21.024;2023-02-17T07:25:14;77201.06;;;-141.45;100.00
31403;BME280;18039;52.188;21.024;2023-02-17T07:27:41;77229.47;;;-141.45;98.11
31403;BME280;18039;52.188;21.024;2023-02-17T07:30:09;77249.75;;;-141.45;96.91
31403;BME280;18039;52.188;21.024;2023-02-17T07:32:36;77253.78;;;-141.45;97.04
31403;BME280;18039;52.188;21.024;2023-02-17T07:35:04;77259.88;;;-141.45;97.18
31403;BME280;18039;52.188;21.024;2023-02-17T07:37:31;77249.75;;;-141.45;97.27
31403;BME280;18039;52.188;21.024;2023-02-17T07:40:00;77229.47;;;-141.45;97.32
31403;BME280;18039;52.188;21.024;2023-02-17T07:42:27;77225.41;;;-141.45;95.61
31403;BME280;18039;52.188;21.024;2023-02-17T07:44:55;77221.34;;;-141.45;96.13
31403;BME280;18039;52.188;21.024;2023-02-17T07:47:22;77221.34;;;-141.45;95.60
31403;BME280;18039;52.188;21.024;2023-02-17T07:49:49;77221.34;;;-141.45;95.02
31403;BME280;18039;52.188;21.024;2023-02-17T07:52:16;77221.34;;;-141.45;95.01
31403;BME280;18039;52.188;21.024;2023-02-17T07:54:45;77217.28;;;-141.45;94.99
31403;BME280;18039;52.188;21.024;2023-02-17T07:57:13;77221.34;;;-141.45;94.71
31403;BME280;18039;52.188;21.024;2023-02-17T07:59:40;77213.25;;;-141.45;94.87
31403;BME280;18039;52.188;21.024;2023-02-17T08:02:10;77209.19;;;-141.45;94.13
31403;BME280;18039;52.188;21.024;2023-02-17T08:04:38;77192.97;;;-141.45;93.54
31403;BME280;18039;52.188;21.024;2023-02-17T08:07:07;77192.97;;;-141.45;93.87
31403;BME280;18039;52.188;21.024;2023-02-17T08:09:35;77184.84;;;-141.45;92.58
31403;BME280;18039;52.188;21.024;2023-02-17T08:12:21;77168.63;;;-141.45;92.72
31403;BME280;18039;52.188;21.024;2023-02-17T08:15:08;77156.47;;;-141.45;92.77
31403;BME280;18039;52.188;21.024;2023-02-17T08:17:36;77148.38;;;-141.45;91.50
31403;BME280;18039;52.188;21.024;2023-02-17T08:20:04;77144.31;;;-141.45;91.60
31403;BME280;18039;52.188;21.024;2023-02-17T08:22:35;77132.16;;;-141.45;92.07
31403;BME280;18039;52.188;21.024;2023-02-17T08:25:04;77128.09;;;-141.45;90.53
31403;BME280;18039;52.188;21.024;2023-02-17T08:27:32;77124.03;;;-141.45;89.52
31403;BME280;18039;52.188;21.024;2023-02-17T08:29:59;77134.16;;;-141.45;89.89
31403;BME280;18039;52.188;21.024;2023-02-17T08:32:26;77124.03;;;-141.45;90.04
31403;BME280;18039;52.188;21.024;2023-02-17T08:34:55;77136.19;;;-141.45;90.09
31403;BME280;18039;52.188;21.024;2023-02-17T08:37:22;77095.66;;;-141.45;90.22
31403;BME280;18039;52.188;21.024;2023-02-17T08:39:50;77097.69;;;-141.45;90.15
31403;BME280;18039;52.188;21.024;2023-02-17T08:42:17;77079.44;;;-141.45;90.13
31403;BME280;18039;52.188;21.024;2023-02-17T08:44:45;77059.16;;;-141.45;89.68
31403;BME280;18039;52.188;21.024;2023-02-17T08:47:13;77038.88;;;-141.45;88.55
31403;BME280;18039;52.188;21.024;2023-02-17T08:49:40;77042.94;;;-141.45;87.69
31403;BME280;18039;52.188;21.024;2023-02-17T08:52:08;77030.78;;;-141.45;88.42
31403;BME280;18039;52.188;21.024;2023-02-17T08:54:36;77022.66;;;-141.45;87.95
31403;BME280;18039;52.188;21.024;2023-02-17T08:57:04;77022.66;;;-141.45;87.38
31403;BME280;18039;52.188;21.024;2023-02-17T08:59:32;77004.41;;;-141.45;86.61
31403;BME280;18039;52.188;21.024;2023-02-17T09:02:00;77012.53;;;-141.45;86.41
31403;BME280;18039;52.188;21.024;2023-02-17T09:04:27;76996.31;;;-141.45;86.27
31403;BME280;18039;52.188;21.024;2023-02-17T09:06:55;76994.28;;;-141.45;86.50
31403;BME280;18039;52.188;21.024;2023-02-17T09:09:24;76994.28;;;-141.45;86.16
31403;BME280;18039;52.188;21.024;2023-02-17T09:11:55;76992.25;;;-141.45;86.67
31403;BME280;18039;52.188;21.024;2023-02-17T09:14:24;77006.44;;;-141.45;86.96
31403;BME280;18039;52.188;21.024;2023-02-17T09:16:53;77002.41;;;-141.45;87.93
31403;BME280;18039;52.188;21.024;2023-02-17T09:19:22;77010.50;;;-141.45;88.57
31403;BME280;18039;52.188;21.024;2023-02-17T09:21:51;77010.50;;;-141.45;89.46
31403;BME280;18039;52.188;21.024;2023-02-17T09:24:20;77006.44;;;-141.45;89.89
31403;BME280;18039;52.188;21.024;2023-02-17T09:26:47;77006.44;;;-141.45;90.46
31403;BME280;18039;52.188;21.024;2023-02-17T09:29:16;76998.34;;;-141.45;90.97
31403;BME280;18039;52.188;21.024;2023-02-17T09:31:43;76998.34;;;-141.45;90.74
31403;BME280;18039;52.188;21.024;2023-02-17T09:34:13;77000.38;;;-141.45;90.15
31403;BME280;18039;52.188;21.024;2023-02-17T09:36:41;77002.41;;;-141.45;90.66
31403;BME280;18039;52.188;21.024;2023-02-17T09:39:09;77002.41;;;-141.45;89.60
31403;BME280;18039;52.188;21.024;2023-02-17T09:44:26;77006.44;;;-141.45;90.04
31403;BME280;18039;52.188;21.024;2023-02-17T09:47:04;77014.56;;;-141.45;90.25
31403;BME280;18039;52.188;21.024;2023-02-17T09:50:05;76998.34;;;-141.45;90.86
31403;BME280;18039;52.188;21.024;2023-02-17T09:52:37;76982.13;;;-141.45;90.66
31403;BME280;18039;52.188;21.024;2023-02-17T09:57:54;76969.94;;;-141.45;91.72
31403;BME280;18039;52.188;21.024;2023-02-17T10:00:31;76969.94;;;-141.45;91.82
31403;BME280;18039;52.188;21.024;2023-02-17T10:09:00;76984.16;;;-141.45;93.02
31403;BME280;18039;52.188;21.024;2023-02-17T10:11:36;76988.19;;;-141.45;93.78
31403;BME280;18039;52.188;21.024;2023-02-17T10:14:12;76990.22;;;-141.45;94.24
31403;BME280;18039;52.188;21.024;2023-02-17T10:16:52;76994.28;;;-141.45;94.68
31403;BME280;18039;52.188;21.024;2023-02-17T10:19:34;77002.41;;;-141.45;94.98
31403;BME280;18039;52.188;21.024;2023-02-17T10:22:17;77002.41;;;-141.45;95.62
31403;BME280;18039;52.188;21.024;2023-02-17T10:24:45;77006.44;;;-141.45;95.85
31403;BME280;18039;52.188;21.024;2023-02-17T10:27:36;77002.41;;;-141.45;96.51
31403;BME280;18039;52.188;21.024;2023-02-17T10:32:58;77010.50;;;-141.45;96.67
31403;BME280;18039;52.188;21.024;2023-02-17T10:41:14;77012.53;;;-141.45;98.23
31403;BME280;18039;52.188;21.024;2023-02-17T10:43:43;77002.41;;;-141.45;98.55
31403;BME280;18039;52.188;21.024;2023-02-17T10:46:14;76984.16;;;-141.45;98.33
31403;BME280;18039;52.188;21.024;2023-02-17T10:51:15;76969.94;;;-141.45;99.00
31403;BME280;18039;52.188;21.024;2023-02-17T10:53:46;76957.78;;;-141.45;99.03
31403;BME280;18039;52.188;21.024;2023-02-17T10:56:31;76957.78;;;-141.45;99.01
31403;BME280;18039;52.188;21.024;2023-02-17T10:59:05;76943.59;;;-141.45;99.04
31403;BME280;18039;52.188;21.024;2023-02-17T11:01:35;76925.34;;;-141.45;99.35
31403;BME280;18039;52.188;21.024;2023-02-17T11:04:08;76909.13;;;-141.45;98.81
31403;BME280;18039;52.188;21.024;2023-02-17T11:06:49;76913.19;;;-141.45;98.44
31403;BME280;18039;52.188;21.024;2023-02-17T11:09:23;76909.13;;;-141.45;98.36
31403;BME280;18039;52.188;21.024;2023-02-17T11:12:03;76903.06;;;-141.45;97.67
31403;BME280;18039;52.188;21.024;2023-02-17T11:14:36;76911.16;;;-141.45;98.33
31403;BME280;18039;52.188;21.024;2023-02-17T11:17:19;76913.19;;;-141.45;99.11
31403;BME280;18039;52.188;21.024;2023-02-17T11:19:59;76913.19;;;-141.45;99.51
31403;BME280;18039;52.188;21.024;2023-02-17T11:22:38;76901.03;;;-141.45;99.68
31403;BME280;18039;52.188;21.024;2023-02-17T11:27:55;76892.91;;;-141.45;99.68
31403;BME280;18039;52.188;21.024;2023-02-17T11:30:24;76878.72;;;-141.45;99.89
31403;BME280;18039;52.188;21.024;2023-02-17T11:32:52;76868.59;;;-141.45;99.99
31403;BME280;18039;52.188;21.024;2023-02-17T11:35:22;76872.66;;;-141.45;99.91
31403;BME280;18039;52.188;21.024;2023-02-17T11:37:51;76878.72;;;-141.45;100.00
31403;BME280;18039;52.188;21.024;2023-02-17T11:40:26;76882.78;;;-141.45;100.00
31403;BME280;18039;52.188;21.024;2023-02-17T11:42:55;76856.44;;;-141.45;100.00
31403;BME280;18039;52.188;21.024;2023-02-17T11:45:26;76848.31;;;-141.45;100.00
31403;BME280;18039;52.188;21.024;2023-02-17T11:50:38;76836.16;;;-141.45;100.00
31403;BME280;18039;52.188;21.024;2023-02-17T11:56:21;76828.03;;;-141.45;100.00
31403;BME280;18039;52.188;21.024;2023-02-17T12:21:07;76767.22;;;-141.45;99.88
31403;BME280;18039;52.188;21.024;2023-02-17T12:31:50;76728.72;;;-141.45;99.58
31403;BME280;18039;52.188;21.024;2023-02-17T12:34:47;76724.66;;;-141.45;99.76
31403;BME280;18039;52.188;21.024;2023-02-17T12:37:31;76726.69;;;-141.45;99.60
31403;BME280;18039;52.188;21.024;2023-02-17T12:40:06;76712.50;;;-141.45;99.90
31403;BME280;18039;52.188;21.024;2023-02-17T12:42:51;76710.47;;;-141.45;99.94
31403;BME280;18039;52.188;21.024;2023-02-17T12:45:36;76694.25;;;-141.45;99.67
31403;BME280;18039;52.188;21.024;2023-02-17T12:48:23;76694.25;;;-141.45;99.75
31403;BME280;18039;52.188;21.024;2023-02-17T12:51:02;76690.19;;;-141.45;99.74
31403;BME280;18039;52.188;21.024;2023-02-17T12:56:38;76694.25;;;-141.45;99.74
31403;BME280;18039;52.188;21.024;2023-02-17T12:59:11;76684.13;;;-141.45;99.93
31403;BME280;18039;52.188;21.024;2023-02-17T13:01:48;76678.03;;;-141.45;100.00
31403;BME280;18039;52.188;21.024;2023-02-17T13:04:17;76680.06;;;-141.45;100.00
31403;BME280;18039;52.188;21.024;2023-02-17T13:06:52;76669.94;;;-141.45;100.00
31403;BME280;18039;52.188;21.024;2023-02-17T13:14:46;76645.59;;;-141.45;100.00
31403;BME280;18039;52.188;21.024;2023-02-17T13:17:36;76645.59;;;-141.45;100.00
31403;BME280;18039;52.188;21.024;2023-02-17T13:22:40;76653.72;;;-141.45;100.00
31403;BME280;18039;52.188;21.024;2023-02-17T13:25:25;76633.44;;;-141.45;100.00
31403;BME280;18039;52.188;21.024;2023-02-17T13:27:53;76641.53;;;-141.45;100.00
31403;BME280;18039;52.188;21.024;2023-02-17T13:33:01;76623.31;;;-141.45;100.00
31403;BME280;18039;52.188;21.024;2023-02-17T13:35:32;76621.28;;;-141.45;100.00
31403;BME280;18039;52.188;21.024;2023-02-17T13:38:00;76617.22;;;-141.45;100.00
31403;BME280;18039;52.188;21.024;2023-02-17T13:43:17;76625.31;;;-141.45;100.00
31403;BME280;18039;52.188;21.024;2023-02-17T13:45:57;76631.41;;;-141.45;100.00
31403;BME280;18039;52.188;21.024;2023-02-17T13:48:29;76623.31;;;-141.45;100.00
31403;BME280;18039;52.188;21.024;2023-02-17T13:50:59;76637.50;;;-141.45;100.00
31403;BME280;18039;52.188;21.024;2023-02-17T13:53:34;76641.53;;;-141.45;100.00
31403;BME280;18039;52.188;21.024;2023-02-17T13:56:30;76643.56;;;-141.45;100.00
31403;BME280;18039;52.188;21.024;2023-02-17T13:59:12;76647.63;;;-141.45;100.00
31403;BME280;18039;52.188;21.024;2023-02-17T14:01:44;76627.34;;;-141.45;100.00
31403;BME280;18039;52.188;21.024;2023-02-17T14:04:25;76625.31;;;-141.45;100.00
31403;BME280;18039;52.188;21.024;2023-02-17T14:06:55;76633.44;;;-141.45;100.00
31403;BME280;18039;52.188;21.024;2023-02-17T14:09:32;76633.44;;;-141.45;100.00
31403;BME280;18039;52.188;21.024;2023-02-17T14:12:02;76625.31;;;-141.45;100.00
31403;BME280;18039;52.188;21.024;2023-02-17T14:14:35;76625.31;;;-141.45;100.00
31403;BME280;18039;52.188;21.024;2023-02-17T14:17:28;76605.06;;;-141.45;100.00
31403;BME280;18039;52.188;21.024;2023-02-17T14:19:57;76588.84;;;-141.45;100.00
31403;BME280;18039;52.188;21.024;2023-02-17T14:22:31;76596.94;;;-141.45;100.00
31403;BME280;18039;52.188;21.024;2023-02-17T14:25:05;76596.94;;;-141.45;100.00
31403;BME280;18039;52.188;21.024;2023-02-17T14:27:45;76584.78;;;-141.45;100.00
31403;BME280;18039;52.188;21.024;2023-02-17T14:30:26;76580.72;;;-141.45;100.00